Time;durP1;ratioP1;P1;durP2;ratioP2;P2;SDS_P1;SDS_P2;PMS_P1;PMS_P2;Temp;Humidity;BMP_temperature;BMP_pressure;BME280_temperature;BME280_humidity;BME280_pressure;Samples;Min_cycle;Max_cycle;Signal;HPM_P1;HPM_P2
2023/05/07 00:00:11;;;;;;;;;;;;;;;26.87;31.05;98254.22;4977879;28;19918;-89
2023/05/07 00:02:37;;;;;;;;;;;;;;;26.86;30.75;98255.47;4966527;28;19958;-89
2023/05/07 00:05:03;;;;;;;;;;;;;;;26.93;30.63;98256.03;4973672;28;19922;-89
2023/05/07 00:07:29;;;;;;;;;;;;;;;27.04;30.51;98250.84;4972143;28;19929;-90
2023/05/07 00:09:55;;;;;;;;;;;;;;;26.92;30.77;98256.47;4969907;28;20338;-88
2023/05/07 00:12:22;;;;;;;;;;;;;;;26.66;30.99;98261.25;4972070;28;20290;-90
2023/05/07 00:14:48;;;;;;;;;;;;;;;26.80;30.42;98251.59;4971218;28;20347;-89
2023/05/07 00:17:14;;;;;;;;;;;;;;;26.49;31.83;98254.13;4970809;28;20413;-89
2023/05/07 00:19:40;;;;;;;;;;;;;;;26.32;30.82;98253.41;4967713;28;19953;-90
2023/05/07 00:22:07;;;;;;;;;;;;;;;26.36;31.17;98256.09;4970960;28;19922;-90
2023/05/07 00:24:33;;;;;;;;;;;;;;;26.42;31.53;98252.28;4963646;28;19937;-91
2023/05/07 00:26:59;;;;;;;;;;;;;;;26.50;31.17;98253.66;4972048;28;19927;-88
2023/05/07 00:29:25;;;;;;;;;;;;;;;26.70;30.92;98253.47;4977919;28;19961;-90
2023/05/07 00:31:51;;;;;;;;;;;;;;;26.87;30.72;98259.84;4993826;28;20285;-90
2023/05/07 00:34:17;;;;;;;;;;;;;;;27.02;30.31;98250.53;4989354;28;19925;-90
2023/05/07 00:36:43;;;;;;;;;;;;;;;26.88;30.94;98256.59;5002830;28;20007;-89
2023/05/07 00:39:09;;;;;;;;;;;;;;;26.85;30.30;98257.47;4988107;28;19918;-91
2023/05/07 00:41:35;;;;;;;;;;;;;;;26.73;31.00;98256.19;4980461;28;19924;-90
2023/05/07 00:44:02;;;;;;;;;;;;;;;26.65;30.67;98252.00;4981477;28;19928;-90
2023/05/07 00:46:28;;;;;;;;;;;;;;;26.74;30.67;98257.00;4981083;28;20392;-90
2023/05/07 00:48:54;;;;;;;;;;;;;;;26.55;31.05;98267.19;4992041;28;19926;-89
2023/05/07 00:51:20;;;;;;;;;;;;;;;26.65;31.01;98262.50;4986685;28;19922;-87
2023/05/07 00:53:47;;;;;;;;;;;;;;;26.71;30.86;98261.50;4987535;28;19921;-90
2023/05/07 00:56:13;;;;;;;;;;;;;;;26.64;30.39;98261.69;4990977;28;19932;-88
2023/05/07 00:58:40;;;;;;;;;;;;;;;26.51;30.74;98263.69;4990856;28;19933;-91
2023/05/07 01:01:07;;;;;;;;;;;;;;;26.52;30.48;98268.09;4982537;28;19922;-89
2023/05/07 01:03:33;;;;;;;;;;;;;;;26.76;30.55;98265.00;4996691;28;19937;-91
2023/05/07 01:06:00;;;;;;;;;;;;;;;26.67;30.50;98258.00;4990439;28;20415;-90
2023/05/07 01:08:29;;;;;;;;;;;;;;;26.48;30.91;98270.22;4989010;28;19969;-90
2023/05/07 01:10:56;;;;;;;;;;;;;;;26.77;31.12;98266.59;4981743;28;19922;-90
2023/05/07 01:13:22;;;;;;;;;;;;;;;27.05;31.03;98274.97;4976802;28;20585;-90
2023/05/07 01:15:48;;;;;;;;;;;;;;;27.11;30.07;98264.72;4981971;28;19918;-90
2023/05/07 01:18:15;;;;;;;;;;;;;;;26.99;30.34;98273.16;4991259;28;19922;-90
2023/05/07 01:20:41;;;;;;;;;;;;;;;26.82;30.76;98277.28;4993077;28;19929;-90
2023/05/07 01:23:08;;;;;;;;;;;;;;;26.71;30.36;98274.78;5000743;28;20330;-89
2023/05/07 01:25:34;;;;;;;;;;;;;;;26.71;30.21;98275.56;4986251;28;19922;-90
2023/05/07 01:28:01;;;;;;;;;;;;;;;26.70;30.49;98276.81;4983345;28;19926;-90
2023/05/07 01:30:27;;;;;;;;;;;;;;;26.78;30.55;98273.81;4997448;28;19928;-91
2023/05/07 01:32:57;;;;;;;;;;;;;;;26.98;30.45;98280.06;4984008;28;20293;-91
2023/05/07 01:35:26;;;;;;;;;;;;;;;26.95;29.68;98273.28;4980707;28;20008;-90
2023/05/07 01:37:53;;;;;;;;;;;;;;;26.53;30.50;98278.13;4983118;28;20053;-88
2023/05/07 01:40:19;;;;;;;;;;;;;;;26.09;31.34;98284.56;4989295;28;19929;-90
2023/05/07 01:42:45;;;;;;;;;;;;;;;26.14;31.49;98278.41;4990364;28;19929;-90
2023/05/07 01:45:11;;;;;;;;;;;;;;;26.18;31.88;98281.13;4974230;28;20024;-90
2023/05/07 01:47:38;;;;;;;;;;;;;;;26.17;31.54;98280.34;4985717;28;20293;-91
2023/05/07 01:50:10;;;;;;;;;;;;;;;26.13;31.33;98278.84;5004915;28;20328;-90
2023/05/07 01:52:38;;;;;;;;;;;;;;;26.16;32.13;98287.22;4990901;28;19965;-91
2023/05/07 01:55:04;;;;;;;;;;;;;;;26.57;30.83;98283.66;4990273;28;19937;-89
2023/05/07 01:57:30;;;;;;;;;;;;;;;26.81;30.67;98287.00;4984781;28;19926;-91
2023/05/07 01:59:56;;;;;;;;;;;;;;;27.07;30.35;98286.56;4990756;28;19922;-91
2023/05/07 02:02:23;;;;;;;;;;;;;;;27.31;29.71;98275.75;4990305;28;20004;-91
2023/05/07 02:04:49;;;;;;;;;;;;;;;27.50;30.02;98269.13;4986492;28;20378;-91
2023/05/07 02:07:15;;;;;;;;;;;;;;;27.69;29.59;98282.19;4981131;28;19928;-90
2023/05/07 02:09:41;;;;;;;;;;;;;;;27.67;29.45;98273.41;4988323;28;20020;-91
2023/05/07 02:12:06;;;;;;;;;;;;;;;27.57;29.61;98268.91;4984900;28;19965;-91
2023/05/07 02:14:32;;;;;;;;;;;;;;;27.45;29.63;98278.16;4985549;28;20405;-90
2023/05/07 02:16:58;;;;;;;;;;;;;;;27.27;29.26;98269.47;4990065;28;19930;-91
2023/05/07 02:19:25;;;;;;;;;;;;;;;26.94;30.10;98273.72;4987874;28;19922;-91
2023/05/07 02:21:51;;;;;;;;;;;;;;;26.98;30.62;98278.00;5001031;28;19925;-91
2023/05/07 02:24:17;;;;;;;;;;;;;;;26.88;30.21;98279.13;4979843;28;19930;-90
2023/05/07 02:26:43;;;;;;;;;;;;;;;26.81;30.46;98284.19;5001003;28;19985;-90
2023/05/07 02:29:09;;;;;;;;;;;;;;;26.89;30.00;98288.34;4988075;28;20297;-90
2023/05/07 02:31:35;;;;;;;;;;;;;;;26.81;29.86;98276.53;4987145;28;19922;-88
2023/05/07 02:34:01;;;;;;;;;;;;;;;26.59;30.43;98287.59;4984840;28;19948;-88
2023/05/07 02:36:27;;;;;;;;;;;;;;;26.59;30.63;98284.78;4987040;28;19922;-90
2023/05/07 02:38:53;;;;;;;;;;;;;;;26.61;30.44;98285.13;4988459;28;19932;-90
2023/05/07 02:41:20;;;;;;;;;;;;;;;26.55;30.78;98292.53;4991577;28;19926;-89
2023/05/07 02:43:46;;;;;;;;;;;;;;;25.93;32.16;98295.81;4993851;28;19921;-88
2023/05/07 02:46:12;;;;;;;;;;;;;;;24.62;35.09;98289.63;4990585;28;19972;-91
2023/05/07 02:48:38;;;;;;;;;;;;;;;22.55;38.53;98309.38;4992425;28;19922;-90
2023/05/07 02:51:05;;;;;;;;;;;;;;;22.37;39.44;98305.19;4987598;28;19937;-92
2023/05/07 02:53:31;;;;;;;;;;;;;;;20.78;42.77;98298.06;4992687;28;20395;-89
2023/05/07 02:55:58;;;;;;;;;;;;;;;19.57;45.94;98309.91;4983237;28;19936;-90
2023/05/07 02:58:24;;;;;;;;;;;;;;;18.92;48.29;98302.66;4984799;28;19934;-91
2023/05/07 03:00:50;;;;;;;;;;;;;;;19.68;45.82;98313.47;4990160;28;19980;-90
2023/05/07 03:03:16;;;;;;;;;;;;;;;19.47;45.41;98303.16;4973012;28;19992;-90
2023/05/07 03:05:43;;;;;;;;;;;;;;;19.89;44.83;98310.69;4988663;28;19937;-91
2023/05/07 03:08:09;;;;;;;;;;;;;;;19.65;44.88;98312.28;4995986;28;19922;-90
2023/05/07 03:10:35;;;;;;;;;;;;;;;21.20;40.18;98305.44;4978604;28;19976;-90
2023/05/07 03:13:02;;;;;;;;;;;;;;;22.20;37.77;98315.34;4976195;28;19918;-90
2023/05/07 03:15:28;;;;;;;;;;;;;;;23.06;36.45;98313.13;4992281;28;19921;-90
2023/05/07 03:17:54;;;;;;;;;;;;;;;21.37;40.56;98321.28;5011173;28;19971;-90
2023/05/07 03:20:20;;;;;;;;;;;;;;;21.86;38.56;98323.69;4998802;28;19969;-91
2023/05/07 03:22:46;;;;;;;;;;;;;;;20.27;42.42;98325.78;4978883;28;20378;-91
2023/05/07 03:25:12;;;;;;;;;;;;;;;19.77;43.81;98327.81;4975614;28;19918;-91
2023/05/07 03:27:38;;;;;;;;;;;;;;;20.12;43.14;98338.91;4984809;28;19953;-90
2023/05/07 03:30:04;;;;;;;;;;;;;;;21.45;38.87;98325.59;4992049;28;19929;-90
2023/05/07 03:32:30;;;;;;;;;;;;;;;22.68;36.55;98338.41;4983172;28;19929;-90
2023/05/07 03:34:56;;;;;;;;;;;;;;;21.89;37.76;98336.81;4995378;28;20021;-89
2023/05/07 03:37:22;;;;;;;;;;;;;;;22.31;36.86;98334.84;4984575;28;20385;-90
2023/05/07 03:39:48;;;;;;;;;;;;;;;22.46;36.50;98337.06;4999580;28;19921;-90
2023/05/07 03:42:15;;;;;;;;;;;;;;;19.77;42.16;98341.72;4993177;28;19917;-90
2023/05/07 03:44:41;;;;;;;;;;;;;;;21.26;38.93;98338.09;4990278;28;20004;-91
2023/05/07 03:47:07;;;;;;;;;;;;;;;20.40;41.10;98354.81;4993874;28;20377;-90
2023/05/07 03:49:33;;;;;;;;;;;;;;;22.27;36.35;98351.66;4993682;28;19926;-89
2023/05/07 03:51:59;;;;;;;;;;;;;;;20.88;39.58;98355.84;4988685;28;19929;-91
2023/05/07 03:54:25;;;;;;;;;;;;;;;22.65;35.62;98352.47;4980990;28;19922;-91
2023/05/07 03:56:51;;;;;;;;;;;;;;;22.03;36.48;98356.28;4985907;28;19933;-91
2023/05/07 03:59:17;;;;;;;;;;;;;;;23.15;35.14;98359.00;4993254;28;19922;-90
2023/05/07 04:01:43;;;;;;;;;;;;;;;23.57;33.90;98356.84;4983620;28;19928;-91
2023/05/07 04:04:09;;;;;;;;;;;;;;;23.88;33.22;98361.13;4990226;28;19921;-90
2023/05/07 04:06:35;;;;;;;;;;;;;;;24.08;32.83;98366.84;4999549;28;19979;-90
2023/05/07 04:09:01;;;;;;;;;;;;;;;24.19;33.06;98361.81;4977652;28;19930;-90
2023/05/07 04:11:27;;;;;;;;;;;;;;;24.29;32.16;98367.25;4985528;28;20025;-91
2023/05/07 04:13:53;;;;;;;;;;;;;;;23.69;33.56;98373.84;4997333;28;19922;-91
2023/05/07 04:16:20;;;;;;;;;;;;;;;23.19;34.51;98372.97;4976136;28;19918;-89
2023/05/07 04:18:46;;;;;;;;;;;;;;;23.48;34.73;98376.97;4983161;28;20293;-90
2023/05/07 04:21:15;;;;;;;;;;;;;;;23.02;35.83;98379.59;4979474;28;19918;-91
2023/05/07 04:23:41;;;;;;;;;;;;;;;20.34;40.39;98387.09;4983344;28;19921;-90
2023/05/07 04:26:07;;;;;;;;;;;;;;;21.07;40.01;98382.50;4982510;28;19973;-89
2023/05/07 04:28:34;;;;;;;;;;;;;;;20.85;39.36;98383.75;4986218;28;19929;-90
2023/05/07 04:31:00;;;;;;;;;;;;;;;19.53;42.55;98392.66;4991963;28;20405;-91
2023/05/07 04:33:26;;;;;;;;;;;;;;;21.51;38.73;98388.22;4990653;28;19922;-90
2023/05/07 04:35:52;;;;;;;;;;;;;;;22.90;35.22;98400.53;4983929;28;19925;-92
2023/05/07 04:38:18;;;;;;;;;;;;;;;22.52;36.56;98396.94;4963352;28;19922;-91
2023/05/07 04:40:44;;;;;;;;;;;;;;;20.74;39.81;98402.53;4996262;28;20017;-91
2023/05/07 04:43:10;;;;;;;;;;;;;;;21.02;38.73;98403.22;5002152;28;19926;-92
2023/05/07 04:45:36;;;;;;;;;;;;;;;21.48;37.59;98402.19;4993334;28;19974;-92
2023/05/07 04:48:02;;;;;;;;;;;;;;;19.84;41.63;98411.38;5008555;28;20292;-91
2023/05/07 04:50:28;;;;;;;;;;;;;;;19.15;43.79;98417.22;5009671;28;19922;-92
2023/05/07 04:52:54;;;;;;;;;;;;;;;18.82;44.03;98423.03;4978764;28;20016;-91
2023/05/07 04:55:20;;;;;;;;;;;;;;;17.93;47.97;98418.88;4997354;28;20732;-94
2023/05/07 04:57:47;;;;;;;;;;;;;;;19.08;43.47;98414.41;4981167;28;19926;-93
2023/05/07 05:00:14;;;;;;;;;;;;;;;19.13;42.67;98425.16;5001518;28;19922;-91
2023/05/07 05:02:40;;;;;;;;;;;;;;;18.50;44.90;98425.66;5002675;28;19922;-90
2023/05/07 05:05:07;;;;;;;;;;;;;;;18.97;44.25;98429.47;4999527;28;19968;-93
2023/05/07 05:07:33;;;;;;;;;;;;;;;18.77;44.32;98436.50;4998850;28;19930;-91
2023/05/07 05:09:59;;;;;;;;;;;;;;;18.52;45.36;98434.41;4998253;28;19977;-92
2023/05/07 05:12:25;;;;;;;;;;;;;;;19.21;42.96;98440.69;4992008;28;20047;-92
2023/05/07 05:14:51;;;;;;;;;;;;;;;18.69;44.69;98441.25;4986933;28;19930;-93
2023/05/07 05:17:18;;;;;;;;;;;;;;;19.90;40.62;98432.09;4985532;28;20138;-93
2023/05/07 05:19:44;;;;;;;;;;;;;;;21.49;37.32;98440.13;4990656;28;19965;-92
2023/05/07 05:22:10;;;;;;;;;;;;;;;21.06;38.14;98443.13;4990838;28;19933;-90
2023/05/07 05:24:36;;;;;;;;;;;;;;;21.30;37.21;98450.59;4996883;28;19926;-92
2023/05/07 05:27:02;;;;;;;;;;;;;;;21.74;36.84;98447.13;5013799;28;19937;-92
2023/05/07 05:29:28;;;;;;;;;;;;;;;20.45;39.17;98455.59;4991140;28;19945;-93
2023/05/07 05:31:55;;;;;;;;;;;;;;;22.10;35.87;98458.88;4992851;28;19922;-92
2023/05/07 05:34:21;;;;;;;;;;;;;;;21.61;37.16;98456.41;4991217;28;19957;-91
2023/05/07 05:36:48;;;;;;;;;;;;;;;21.86;36.70;98460.66;4986824;28;20008;-92
2023/05/07 05:39:14;;;;;;;;;;;;;;;20.64;39.65;98455.19;4990735;28;19926;-91
2023/05/07 05:41:40;;;;;;;;;;;;;;;20.71;38.63;98468.31;4989970;28;19926;-88
2023/05/07 05:44:06;;;;;;;;;;;;;;;20.37;39.30;98472.75;4989496;28;19922;-95
2023/05/07 05:46:32;;;;;;;;;;;;;;;21.49;36.98;98462.47;4997803;28;20381;-95
2023/05/07 05:48:58;;;;;;;;;;;;;;;21.13;38.07;98468.22;4990719;28;19922;-94
2023/05/07 05:51:24;;;;;;;;;;;;;;;19.66;41.61;98475.44;5000160;28;19960;-95
2023/05/07 05:53:50;;;;;;;;;;;;;;;19.12;42.64;98483.97;5000949;28;19925;-94
2023/05/07 05:56:16;;;;;;;;;;;;;;;19.22;42.05;98488.81;5010521;28;19918;-95
2023/05/07 05:58:43;;;;;;;;;;;;;;;18.06;45.36;98488.03;4988002;28;20393;-93
2023/05/07 06:01:09;;;;;;;;;;;;;;;18.13;44.78;98491.69;4985561;28;20297;-96
2023/05/07 06:03:35;;;;;;;;;;;;;;;18.62;43.36;98491.28;4992659;28;19922;-94
2023/05/07 06:06:01;;;;;;;;;;;;;;;19.30;41.89;98495.97;4985512;28;19924;-91
2023/05/07 06:08:30;;;;;;;;;;;;;;;19.15;42.61;98497.94;4982906;28;19929;-95
2023/05/07 06:10:56;;;;;;;;;;;;;;;18.35;43.25;98500.97;5008710;28;19982;-95
2023/05/07 06:13:22;;;;;;;;;;;;;;;19.19;42.61;98495.16;4997625;28;20356;-96
2023/05/07 06:15:49;;;;;;;;;;;;;;;19.33;42.21;98496.00;4990385;28;20016;-95
2023/05/07 06:18:15;;;;;;;;;;;;;;;19.09;41.64;98507.81;4996872;28;19928;-95
2023/05/07 06:20:41;;;;;;;;;;;;;;;18.99;43.04;98514.16;4995152;28;19922;-95
2023/05/07 06:23:07;;;;;;;;;;;;;;;18.11;44.62;98507.91;4984334;28;20437;-93
2023/05/07 06:25:33;;;;;;;;;;;;;;;17.14;48.46;98523.09;4989100;28;19961;-95
2023/05/07 06:27:59;;;;;;;;;;;;;;;17.48;47.01;98521.13;5016111;28;19926;-95
2023/05/07 06:30:26;;;;;;;;;;;;;;;17.90;45.60;98513.25;5007027;28;19922;-96
2023/05/07 06:32:52;;;;;;;;;;;;;;;19.02;42.17;98524.47;4988859;28;19918;-96
2023/05/07 06:35:18;;;;;;;;;;;;;;;18.11;44.19;98518.25;4981845;28;19921;-93
2023/05/07 06:37:44;;;;;;;;;;;;;;;18.50;43.22;98524.94;4986431;28;19917;-96
2023/05/07 06:40:10;;;;;;;;;;;;;;;17.67;45.96;98526.50;4994372;28;19941;-95
2023/05/07 06:42:37;;;;;;;;;;;;;;;18.15;44.32;98521.84;4977422;28;19917;-94
2023/05/07 06:45:03;;;;;;;;;;;;;;;17.44;46.12;98529.41;4995201;28;20335;-95
2023/05/07 06:47:29;;;;;;;;;;;;;;;18.37;43.20;98532.75;4990946;28;19984;-94
2023/05/07 06:49:56;;;;;;;;;;;;;;;18.39;43.69;98530.38;4983186;28;20008;-93
2023/05/07 06:52:22;;;;;;;;;;;;;;;17.71;44.58;98533.69;4975981;28;20373;-93
2023/05/07 06:54:48;;;;;;;;;;;;;;;18.93;41.25;98532.38;4974652;28;19925;-95
2023/05/07 06:57:14;;;;;;;;;;;;;;;17.87;44.55;98544.59;4999443;28;19929;-95
2023/05/07 06:59:40;;;;;;;;;;;;;;;18.54;43.08;98548.81;5006775;28;19918;-95
2023/05/07 07:02:06;;;;;;;;;;;;;;;19.65;40.41;98543.47;4995403;28;19926;-95
2023/05/07 07:04:32;;;;;;;;;;;;;;;18.89;40.92;98544.69;4994769;28;20001;-95
2023/05/07 07:06:58;;;;;;;;;;;;;;;20.46;38.41;98535.31;4981287;28;20021;-95
2023/05/07 07:09:24;;;;;;;;;;;;;;;20.84;36.49;98535.66;4993668;28;20363;-94
2023/05/07 07:11:50;;;;;;;;;;;;;;;21.07;36.59;98541.63;4998758;28;19964;-94
2023/05/07 07:14:16;;;;;;;;;;;;;;;21.47;35.40;98545.88;4994335;28;19922;-95
2023/05/07 07:16:42;;;;;;;;;;;;;;;20.29;39.02;98552.00;4995541;28;19925;-94
2023/05/07 07:19:08;;;;;;;;;;;;;;;19.74;38.98;98559.84;5001941;28;19922;-94
2023/05/07 07:21:34;;;;;;;;;;;;;;;18.67;41.49;98562.44;4997849;28;19922;-93
2023/05/07 07:24:00;;;;;;;;;;;;;;;18.06;43.58;98563.84;5003943;28;20301;-95
2023/05/07 07:26:26;;;;;;;;;;;;;;;19.06;41.22;98564.28;4987732;28;19922;-95
2023/05/07 07:28:52;;;;;;;;;;;;;;;20.97;36.50;98559.97;4989174;28;19926;-95
2023/05/07 07:31:18;;;;;;;;;;;;;;;18.95;41.77;98582.09;4982879;28;19921;-95
2023/05/07 07:33:44;;;;;;;;;;;;;;;19.46;39.45;98579.22;4983243;28;19977;-95
2023/05/07 07:36:10;;;;;;;;;;;;;;;20.81;36.76;98587.50;4985644;28;19954;-93
2023/05/07 07:38:36;;;;;;;;;;;;;;;22.27;33.34;98577.41;4981079;28;20324;-96
2023/05/07 07:41:02;;;;;;;;;;;;;;;19.28;40.57;98593.00;4986549;28;19928;-93
2023/05/07 07:43:28;;;;;;;;;;;;;;;19.15;39.76;98597.31;4988166;28;20374;-94
2023/05/07 07:45:54;;;;;;;;;;;;;;;18.65;42.15;98596.16;4981537;28;19922;-94
2023/05/07 07:48:20;;;;;;;;;;;;;;;20.46;37.23;98587.50;4986953;28;19929;-93
2023/05/07 07:50:49;;;;;;;;;;;;;;;21.41;35.16;98593.00;4991202;28;19922;-93
2023/05/07 07:53:14;;;;;;;;;;;;;;;20.29;37.91;98596.63;4981031;28;19925;-94
2023/05/07 07:55:40;;;;;;;;;;;;;;;17.92;42.46;98605.38;4991685;28;19913;-93
2023/05/07 07:58:07;;;;;;;;;;;;;;;17.83;43.26;98613.19;4993272;28;20289;-94
2023/05/07 08:00:32;;;;;;;;;;;;;;;18.63;41.00;98606.88;4985392;28;19929;-89
2023/05/07 08:02:58;;;;;;;;;;;;;;;18.47;41.68;98609.13;4985736;28;19922;-94
2023/05/07 08:05:25;;;;;;;;;;;;;;;20.79;36.94;98606.63;4991583;28;19918;-93
2023/05/07 08:07:52;;;;;;;;;;;;;;;20.30;38.13;98612.19;4997511;28;19934;-94
2023/05/07 08:10:21;;;;;;;;;;;;;;;20.63;36.84;98600.66;4985253;28;19918;-95
2023/05/07 08:12:50;;;;;;;;;;;;;;;21.17;35.21;98608.59;4995733;28;19918;-93
2023/05/07 08:15:16;;;;;;;;;;;;;;;22.08;33.88;98612.28;4989632;28;19961;-93
2023/05/07 08:17:43;;;;;;;;;;;;;;;21.35;35.04;98619.75;4992262;28;19922;-93
2023/05/07 08:20:09;;;;;;;;;;;;;;;22.00;33.68;98617.16;4990094;28;20427;-91
2023/05/07 08:22:35;;;;;;;;;;;;;;;19.75;38.60;98629.09;5003120;28;19971;-88
2023/05/07 08:25:02;;;;;;;;;;;;;;;20.91;35.99;98622.19;4980750;28;19926;-91
2023/05/07 08:27:28;;;;;;;;;;;;;;;20.43;37.90;98630.91;4986766;28;19930;-91
2023/05/07 08:29:54;;;;;;;;;;;;;;;18.88;40.46;98637.69;4982789;28;19938;-90
2023/05/07 08:32:20;;;;;;;;;;;;;;;20.56;37.65;98631.34;4978167;28;19929;-88
2023/05/07 08:34:47;;;;;;;;;;;;;;;20.95;36.09;98640.53;4975220;28;20546;-88
2023/05/07 08:37:13;;;;;;;;;;;;;;;21.38;34.35;98638.47;4987890;28;19930;-90
2023/05/07 08:39:39;;;;;;;;;;;;;;;20.97;36.66;98649.28;4993158;28;19929;-88
2023/05/07 08:42:06;;;;;;;;;;;;;;;20.81;37.09;98653.66;4992413;28;20058;-89
2023/05/07 08:44:33;;;;;;;;;;;;;;;19.24;40.90;98659.81;4993147;28;20012;-90
2023/05/07 08:47:00;;;;;;;;;;;;;;;19.73;38.28;98659.34;4996214;28;19925;-88
2023/05/07 08:49:27;;;;;;;;;;;;;;;21.08;35.27;98654.88;4981849;28;19924;-88
2023/05/07 08:51:53;;;;;;;;;;;;;;;22.37;33.62;98655.69;4999677;28;19950;-89
2023/05/07 08:54:20;;;;;;;;;;;;;;;23.05;31.81;98653.22;5003445;28;19921;-90
2023/05/07 08:56:46;;;;;;;;;;;;;;;23.89;30.36;98663.59;4998422;28;20340;-90
2023/05/07 08:59:12;;;;;;;;;;;;;;;24.48;29.21;98661.22;5004192;28;20401;-89
2023/05/07 09:01:39;;;;;;;;;;;;;;;22.47;33.60;98670.84;4986623;28;19921;-89
2023/05/07 09:04:06;;;;;;;;;;;;;;;19.79;38.82;98673.72;4985348;28;20374;-89
2023/05/07 09:06:33;;;;;;;;;;;;;;;18.80;39.79;98674.97;4990787;28;19921;-88
2023/05/07 09:09:01;;;;;;;;;;;;;;;18.61;41.13;98676.00;4991490;28;20080;-90
2023/05/07 09:11:27;;;;;;;;;;;;;;;19.15;40.96;98672.47;5004841;28;19941;-87
2023/05/07 09:13:54;;;;;;;;;;;;;;;19.78;37.75;98683.25;4982059;28;20032;-90
2023/05/07 09:16:21;;;;;;;;;;;;;;;18.78;41.25;98686.50;4982442;28;19929;-88
2023/05/07 09:18:50;;;;;;;;;;;;;;;18.48;40.56;98685.81;4988203;28;19926;-89
2023/05/07 09:21:17;;;;;;;;;;;;;;;18.68;40.49;98687.19;4987109;28;19926;-92
2023/05/07 09:23:43;;;;;;;;;;;;;;;18.65;41.38;98695.50;4995307;28;19925;-89
2023/05/07 09:26:11;;;;;;;;;;;;;;;19.97;37.73;98700.47;4996257;28;20409;-90
2023/05/07 09:28:38;;;;;;;;;;;;;;;20.53;35.82;98699.06;4927943;28;1870272;-90
2023/05/07 09:31:04;;;;;;;;;;;;;;;19.88;38.50;98702.78;4988338;28;20000;-89
2023/05/07 09:33:30;;;;;;;;;;;;;;;21.30;35.68;98699.16;4992918;28;19922;-90
2023/05/07 09:35:56;;;;;;;;;;;;;;;21.32;35.89;98707.13;5000784;28;19929;-88
2023/05/07 09:38:22;;;;;;;;;;;;;;;19.92;37.76;98705.59;4999458;28;19952;-90
2023/05/07 09:41:01;;;;;;;;;;;;;;;20.25;36.33;98707.38;4996091;28;19941;-88
2023/05/07 09:43:31;;;;;;;;;;;;;;;20.90;35.36;98709.88;4991382;28;19921;-89
2023/05/07 09:45:58;;;;;;;;;;;;;;;21.46;33.76;98711.91;4996869;28;20037;-88
2023/05/07 09:48:25;;;;;;;;;;;;;;;19.64;39.26;98717.41;4996762;28;19926;-89
2023/05/07 09:50:55;;;;;;;;;;;;;;;17.78;43.19;98727.41;4998687;28;19931;-89
2023/05/07 09:53:21;;;;;;;;;;;;;;;18.42;41.92;98723.44;5008984;28;19924;-88
2023/05/07 09:55:47;;;;;;;;;;;;;;;18.17;42.31;98728.72;4994585;28;19921;-89
2023/05/07 09:58:14;;;;;;;;;;;;;;;19.31;39.62;98725.88;4993246;28;20423;-88
2023/05/07 10:00:41;;;;;;;;;;;;;;;20.33;35.68;98731.28;4995404;28;19926;-89
2023/05/07 10:03:08;;;;;;;;;;;;;;;19.92;36.78;98733.47;4994692;28;19922;-87
2023/05/07 10:05:34;;;;;;;;;;;;;;;18.93;39.54;98741.06;4995113;28;20304;-87
2023/05/07 10:08:00;;;;;;;;;;;;;;;18.67;41.02;98743.97;4994120;28;19930;-87
2023/05/07 10:10:27;;;;;;;;;;;;;;;18.31;41.37;98739.19;5001228;28;19939;-87
2023/05/07 10:12:54;;;;;;;;;;;;;;;17.89;42.94;98743.03;5002770;28;19956;-88
2023/05/07 10:15:21;;;;;;;;;;;;;;;18.08;42.87;98742.09;4997867;28;19922;-89
2023/05/07 10:17:48;;;;;;;;;;;;;;;18.36;41.64;98745.22;4994620;28;20337;-88
2023/05/07 10:20:14;;;;;;;;;;;;;;;18.12;42.16;98736.56;4976730;28;19925;-88
2023/05/07 10:22:45;;;;;;;;;;;;;;;19.64;38.00;98745.25;4995599;28;19922;-88
2023/05/07 10:25:17;;;;;;;;;;;;;;;19.82;38.07;98754.50;4991468;28;19918;-89
2023/05/07 10:27:45;;;;;;;;;;;;;;;19.53;38.25;98749.16;4985811;28;19930;-89
2023/05/07 10:30:23;;;;;;;;;;;;;;;19.12;39.98;98754.75;4990845;28;19937;-89
2023/05/07 10:32:51;;;;;;;;;;;;;;;20.88;36.79;98760.53;4998708;28;20318;-88
2023/05/07 10:35:25;;;;;;;;;;;;;;;18.58;41.64;98765.75;4989897;28;19933;-87
2023/05/07 10:37:52;;;;;;;;;;;;;;;19.08;38.87;98775.41;4985122;28;19926;-86
2023/05/07 10:40:19;;;;;;;;;;;;;;;18.49;41.46;98768.03;4995451;28;19925;-89
2023/05/07 10:42:55;;;;;;;;;;;;;;;19.26;38.25;98765.22;4989691;28;19930;-89
2023/05/07 10:45:22;;;;;;;;;;;;;;;19.61;37.90;98761.94;4990055;28;19984;-85
2023/05/07 10:48:08;;;;;;;;;;;;;;;19.58;38.19;98763.50;4988108;28;19930;-86
2023/05/07 10:50:34;;;;;;;;;;;;;;;19.61;37.61;98767.50;4986932;28;19980;-87
2023/05/07 10:53:20;;;;;;;;;;;;;;;20.70;36.58;98770.84;4984439;28;19922;-85
2023/05/07 10:55:47;;;;;;;;;;;;;;;19.16;38.35;98772.28;4982486;28;20344;-88
2023/05/07 10:58:19;;;;;;;;;;;;;;;21.05;34.23;98773.75;4978683;28;20369;-86
2023/05/07 11:00:46;;;;;;;;;;;;;;;21.44;33.73;98782.16;4982550;28;19935;-85
2023/05/07 11:03:12;;;;;;;;;;;;;;;19.40;39.51;98773.72;4983351;28;19930;-88
2023/05/07 11:05:38;;;;;;;;;;;;;;;18.05;42.58;98783.72;4982463;28;20026;-87
2023/05/07 11:08:05;;;;;;;;;;;;;;;19.57;38.23;98780.59;4985372;28;19969;-87
2023/05/07 11:10:49;;;;;;;;;;;;;;;20.36;35.79;98778.72;4983182;28;19925;-87
2023/05/07 11:13:16;;;;;;;;;;;;;;;20.31;37.09;98767.13;4987675;28;19937;-87
2023/05/07 11:15:46;;;;;;;;;;;;;;;20.34;35.56;98777.50;4987691;28;19928;-87
2023/05/07 11:18:13;;;;;;;;;;;;;;;18.39;42.11;98777.81;4987290;28;19926;-89
2023/05/07 11:20:47;;;;;;;;;;;;;;;17.95;41.67;98788.75;4985487;28;19926;-88
2023/05/07 11:23:31;;;;;;;;;;;;;;;17.76;43.61;98788.88;4986841;28;20419;-89
2023/05/07 11:25:59;;;;;;;;;;;;;;;18.76;39.43;98794.56;4984668;28;20436;-88
2023/05/07 11:28:25;;;;;;;;;;;;;;;17.87;40.63;98795.41;4985108;28;19925;-87
2023/05/07 11:30:52;;;;;;;;;;;;;;;19.11;39.78;98794.13;4984080;28;19926;-89
2023/05/07 11:33:18;;;;;;;;;;;;;;;18.03;42.68;98795.22;4986833;28;19989;-87
2023/05/07 11:35:45;;;;;;;;;;;;;;;19.10;40.29;98795.28;4985864;28;19922;-87
2023/05/07 11:38:12;;;;;;;;;;;;;;;18.83;39.75;98803.00;4981578;28;19928;-88
2023/05/07 11:40:51;;;;;;;;;;;;;;;19.85;37.30;98797.53;4984681;28;20012;-87
2023/05/07 11:43:17;;;;;;;;;;;;;;;21.78;32.79;98796.50;4978378;28;19926;-87
2023/05/07 11:45:47;;;;;;;;;;;;;;;19.87;38.42;98797.94;4980809;28;20950;-88
2023/05/07 11:48:13;;;;;;;;;;;;;;;18.58;40.59;98805.47;4982453;28;20370;-88
2023/05/07 11:51:13;;;;;;;;;;;;;;;20.09;36.87;98805.25;4986826;28;19929;-87
2023/05/07 11:53:40;;;;;;;;;;;;;;;20.37;36.06;98813.00;4945327;28;19926;-87
2023/05/07 11:56:06;;;;;;;;;;;;;;;21.34;33.58;98806.09;4983582;28;20028;-87
2023/05/07 11:58:32;;;;;;;;;;;;;;;21.35;34.45;98818.06;4989045;28;19976;-87
2023/05/07 12:00:58;;;;;;;;;;;;;;;21.08;34.88;98808.44;4981436;28;19929;-88
2023/05/07 12:03:24;;;;;;;;;;;;;;;20.33;35.41;98810.16;4991092;28;20373;-87
2023/05/07 12:05:50;;;;;;;;;;;;;;;21.05;35.22;98812.81;4987067;28;19926;-89
2023/05/07 12:08:17;;;;;;;;;;;;;;;21.93;32.77;98815.69;4974726;28;19933;-87
2023/05/07 12:10:44;;;;;;;;;;;;;;;20.20;36.64;98813.66;4976359;28;20439;-88
2023/05/07 12:13:23;;;;;;;;;;;;;;;20.66;35.46;98823.06;4987311;28;20489;-88
2023/05/07 12:15:53;;;;;;;;;;;;;;;19.45;37.06;98820.69;4991293;28;19925;-87
2023/05/07 12:18:19;;;;;;;;;;;;;;;19.88;36.72;98816.25;4994854;28;19929;-88
2023/05/07 12:20:45;;;;;;;;;;;;;;;20.83;35.40;98825.13;4975451;28;20029;-89
2023/05/07 12:23:12;;;;;;;;;;;;;;;21.06;34.18;98825.59;4979009;28;19949;-87
2023/05/07 12:25:39;;;;;;;;;;;;;;;21.45;33.87;98827.66;4975612;28;19930;-88
2023/05/07 12:28:05;;;;;;;;;;;;;;;21.21;35.11;98824.41;4975789;28;19951;-87
2023/05/07 12:30:32;;;;;;;;;;;;;;;20.64;34.43;98831.03;4980441;28;19930;-88
2023/05/07 12:32:58;;;;;;;;;;;;;;;21.55;33.01;98830.44;4976257;28;19917;-87
2023/05/07 12:35:28;;;;;;;;;;;;;;;19.95;36.66;98833.03;4967447;28;19964;-87
2023/05/07 12:37:55;;;;;;;;;;;;;;;19.59;37.54;98831.97;5002470;28;19917;-88
2023/05/07 12:40:21;;;;;;;;;;;;;;;18.42;38.50;98827.09;4987705;28;20298;-87
2023/05/07 12:42:52;;;;;;;;;;;;;;;17.59;42.80;98831.06;4980437;28;19940;-90
2023/05/07 12:45:18;;;;;;;;;;;;;;;17.44;42.85;98843.06;4973606;28;19958;-89